KISQ/ISQ METAR and TAF weather

Enter ICAO airport designator
Station Type Date Time Source
KISQ METAR 2021/03/07 09:15 UTC NOAA

KISQ 070915Z AUTO 00000KT 10SM CLR M16/M18 A3040 RMK AO2 T11571178


Station Type Date Time Source
KISQ Decoded METAR 2021/03/07 09:15 UTC NOAA

Manistique, Schoolcraft County Airport, MI, United States (KISQ) 45-58-29N 086-10-19W
Mar 07, 2021 - 04:15 AM EST / 2021.03.07 0915 UTC
Wind: Calm:0
Visibility: 10 mile(s):0
Sky conditions: clear
Temperature: 3.7 F (-15.7 C)
Dew Point: -0.0 F (-17.8 C)
Relative Humidity: 83%
Pressure (altimeter): 30.4 in. Hg (1029 hPa)
ob: KISQ 070915Z AUTO 00000KT 10SM CLR M16/M18 A3040 RMK AO2 T11571178
cycle: 9

Station Type Date Time Source
KISQ TAF UTC NOAA

Error!

Example: see airport list